createdAt,value
2023-01-13T00:00:15.767Z,51.259670
2023-01-13T00:01:15.723Z,51.259617
2023-01-13T00:02:15.710Z,51.259644
2023-01-13T00:03:15.687Z,51.259674
2023-01-13T00:04:15.714Z,51.259674
2023-01-13T00:05:15.658Z,51.259712
2023-01-13T00:06:15.673Z,51.259495
2023-01-13T00:07:15.635Z,51.259418
2023-01-13T00:08:15.629Z,51.259411
2023-01-13T00:09:15.621Z,51.259445
2023-01-13T00:10:16.598Z,51.259346
2023-01-13T00:11:15.616Z,51.259262
2023-01-13T00:12:15.576Z,51.259441
2023-01-13T00:13:15.573Z,51.259472
2023-01-13T00:14:15.564Z,51.259415
2023-01-13T00:15:15.551Z,51.259605
2023-01-13T00:16:15.682Z,51.259624
2023-01-13T00:17:15.534Z,51.259644
2023-01-13T00:18:15.531Z,51.259769
2023-01-13T00:19:15.555Z,51.259701
2023-01-13T00:20:15.503Z,51.259552
2023-01-13T00:21:15.514Z,51.259502
2023-01-13T00:22:15.515Z,51.259605
2023-01-13T00:23:15.477Z,51.259579
2023-01-13T00:24:15.469Z,51.259434
2023-01-13T00:25:15.469Z,51.259457
2023-01-13T00:26:15.474Z,51.259571
2023-01-13T00:27:15.441Z,51.259613
2023-01-13T00:28:15.428Z,51.259621
2023-01-13T00:29:15.436Z,51.259552
2023-01-13T00:30:15.405Z,51.259552
2023-01-13T00:31:15.479Z,51.259567
2023-01-13T00:32:15.379Z,51.259487
2023-01-13T00:33:15.375Z,51.259392
2023-01-13T00:34:15.368Z,51.259415
2023-01-13T00:35:15.366Z,51.259384
2023-01-13T00:36:15.355Z,51.259396
2023-01-13T00:37:15.345Z,51.259449
2023-01-13T00:38:15.344Z,51.259480
2023-01-13T00:39:15.340Z,51.259590
2023-01-13T00:40:15.306Z,51.259567
2023-01-13T00:41:15.328Z,51.259636
2023-01-13T00:42:15.289Z,51.259689
2023-01-13T00:43:15.281Z,51.259674
2023-01-13T00:44:15.273Z,51.259628
2023-01-13T00:45:15.257Z,51.259712
2023-01-13T00:46:15.336Z,51.259602
2023-01-13T00:47:15.249Z,51.259563
2023-01-13T00:48:15.226Z,51.259472
2023-01-13T00:49:15.223Z,51.259548
2023-01-13T00:50:15.207Z,51.259602
2023-01-13T00:51:15.232Z,51.259613
2023-01-13T00:52:15.193Z,51.259605
2023-01-13T00:53:15.193Z,51.259613
2023-01-13T00:54:15.166Z,51.259537
2023-01-13T00:55:15.154Z,51.259701
2023-01-13T00:56:15.175Z,51.259586
2023-01-13T00:57:15.142Z,51.259651
2023-01-13T00:58:15.129Z,51.259537
2023-01-13T00:59:15.115Z,51.259640
2023-01-13T01:00:15.110Z,51.259613
2023-01-13T01:01:15.260Z,51.259552
2023-01-13T01:02:15.182Z,51.259583
2023-01-13T01:03:15.081Z,51.259602
2023-01-13T01:04:15.054Z,51.259609
2023-01-13T01:05:15.061Z,51.259571
2023-01-13T01:06:15.066Z,51.259644
2023-01-13T01:07:15.038Z,51.259602
2023-01-13T01:08:15.019Z,51.259529
2023-01-13T01:09:15.017Z,51.259544
2023-01-13T01:10:15.008Z,51.259605
2023-01-13T01:11:15.020Z,51.259460
2023-01-13T01:12:14.990Z,51.259502
2023-01-13T01:13:15.976Z,51.259541
2023-01-13T01:14:14.968Z,51.259548
2023-01-13T01:15:14.953Z,51.259544
2023-01-13T01:16:15.004Z,51.259483
2023-01-13T01:17:14.938Z,51.259472
2023-01-13T01:18:14.925Z,51.259529
2023-01-13T01:19:16.359Z,51.259560
2023-01-13T01:20:14.897Z,51.259460
2023-01-13T01:21:14.924Z,51.259521
2023-01-13T01:22:14.884Z,51.259521
2023-01-13T01:23:14.881Z,51.259548
2023-01-13T01:24:14.867Z,51.259533
2023-01-13T01:25:14.858Z,51.259518
2023-01-13T01:26:14.869Z,51.259521
2023-01-13T01:27:14.837Z,51.259487
2023-01-13T01:28:14.817Z,51.259533
2023-01-13T01:29:14.826Z,51.259590
2023-01-13T01:30:14.846Z,51.259567
2023-01-13T01:31:14.825Z,51.259567
2023-01-13T01:32:14.805Z,51.259628
2023-01-13T01:33:14.779Z,51.259563
2023-01-13T01:34:14.765Z,51.259525
2023-01-13T01:35:14.759Z,51.259537
2023-01-13T01:36:14.746Z,51.259617
2023-01-13T01:37:14.754Z,51.259602
2023-01-13T01:38:14.724Z,51.259407
2023-01-13T01:39:14.717Z,51.259632
2023-01-13T01:40:14.710Z,51.259674
2023-01-13T01:41:14.722Z,51.259514
2023-01-13T01:42:14.775Z,51.259548
2023-01-13T01:43:14.698Z,51.259510
2023-01-13T01:44:14.673Z,51.259331
2023-01-13T01:45:14.660Z,51.258980
2023-01-13T01:46:14.682Z,51.258957
2023-01-13T01:47:14.676Z,51.259441
2023-01-13T01:48:14.628Z,51.259552
2023-01-13T01:49:14.626Z,51.259548
2023-01-13T01:50:14.617Z,51.259438
2023-01-13T01:51:14.606Z,51.259487
2023-01-13T01:52:14.614Z,51.259518
2023-01-13T01:53:14.584Z,51.259697
2023-01-13T01:54:14.578Z,51.259842
2023-01-13T01:55:14.633Z,51.259872
2023-01-13T01:56:14.554Z,51.259804
2023-01-13T01:57:14.570Z,51.259586
2023-01-13T01:58:14.540Z,51.259411
2023-01-13T01:59:14.529Z,51.259483
2023-01-13T02:00:14.511Z,51.259743
2023-01-13T02:01:14.587Z,51.259834
2023-01-13T02:02:14.598Z,51.259769
2023-01-13T02:03:14.481Z,51.259762
2023-01-13T02:04:14.482Z,51.259708
2023-01-13T02:05:14.491Z,51.259682
2023-01-13T02:06:14.446Z,51.259598
2023-01-13T02:07:14.460Z,51.259567
2023-01-13T02:08:14.451Z,51.259590
2023-01-13T02:09:14.426Z,51.259552
2023-01-13T02:10:14.410Z,51.259472
2023-01-13T02:11:14.408Z,51.259460
2023-01-13T02:12:14.418Z,51.259487
2023-01-13T02:13:14.408Z,51.259514
2023-01-13T02:14:14.371Z,51.259651
2023-01-13T02:15:14.361Z,51.259670
2023-01-13T02:16:14.394Z,51.259453
2023-01-13T02:17:14.382Z,51.259258
2023-01-13T02:18:14.327Z,51.259373
2023-01-13T02:19:14.329Z,51.259426
2023-01-13T02:20:14.326Z,51.259430
2023-01-13T02:21:15.305Z,51.259457
2023-01-13T02:22:14.314Z,51.259460
2023-01-13T02:23:14.293Z,51.259521
2023-01-13T02:24:14.270Z,51.259579
2023-01-13T02:25:14.282Z,51.259487
2023-01-13T02:26:14.248Z,51.259533
2023-01-13T02:27:14.262Z,51.259502
2023-01-13T02:28:14.259Z,51.259483
2023-01-13T02:29:14.226Z,51.259415
2023-01-13T02:30:14.199Z,51.259403
2023-01-13T02:31:14.253Z,51.259506
2023-01-13T02:32:14.231Z,51.259571
2023-01-13T02:33:14.190Z,51.259552
2023-01-13T02:34:14.159Z,51.259521
2023-01-13T02:35:14.160Z,51.259590
2023-01-13T02:36:14.151Z,51.259487
2023-01-13T02:37:14.164Z,51.259533
2023-01-13T02:38:14.123Z,51.259445
2023-01-13T02:39:14.136Z,51.259670
2023-01-13T02:40:14.127Z,51.259575
2023-01-13T02:41:14.097Z,51.259537
2023-01-13T02:42:14.114Z,51.259491
2023-01-13T02:43:14.089Z,51.259441
2023-01-13T02:44:15.022Z,51.259544
2023-01-13T02:45:14.062Z,51.259583
2023-01-13T02:46:14.044Z,51.259636
2023-01-13T02:47:14.057Z,51.259655
2023-01-13T02:48:14.058Z,51.259605
2023-01-13T02:49:14.016Z,51.259533
2023-01-13T02:50:13.999Z,51.259575
2023-01-13T02:51:13.996Z,51.259575
2023-01-13T02:52:14.009Z,51.259613
2023-01-13T02:53:13.983Z,51.259617
2023-01-13T02:54:13.958Z,51.259693
2023-01-13T02:55:13.984Z,51.259598
2023-01-13T02:56:13.949Z,51.259403
2023-01-13T02:57:13.976Z,51.259476
2023-01-13T02:58:13.917Z,51.259510
2023-01-13T02:59:13.920Z,51.259514
2023-01-13T03:00:13.800Z,51.259502
2023-01-13T03:01:13.858Z,51.259571
2023-01-13T03:02:13.989Z,51.259628
2023-01-13T03:03:13.766Z,51.259697
2023-01-13T03:04:13.767Z,51.259712
2023-01-13T03:05:13.739Z,51.259655
2023-01-13T03:06:14.731Z,51.259552
2023-01-13T03:07:13.762Z,51.259571
2023-01-13T03:08:13.723Z,51.259624
2023-01-13T03:09:13.713Z,51.259533
2023-01-13T03:10:13.714Z,51.259518
2023-01-13T03:11:13.693Z,51.259609
2023-01-13T03:12:13.701Z,51.259563
2023-01-13T03:13:13.677Z,51.259594
2023-01-13T03:14:13.662Z,51.259602
2023-01-13T03:15:13.671Z,51.259598
2023-01-13T03:16:13.732Z,51.259613
2023-01-13T03:17:13.651Z,51.259686
2023-01-13T03:18:13.615Z,51.259689
2023-01-13T03:19:13.664Z,51.259563
2023-01-13T03:20:13.616Z,51.259499
2023-01-13T03:21:13.594Z,51.259514
2023-01-13T03:22:13.600Z,51.259579
2023-01-13T03:23:13.571Z,51.259617
2023-01-13T03:24:13.555Z,51.259548
2023-01-13T03:25:13.550Z,51.259567
2023-01-13T03:26:13.530Z,51.259567
2023-01-13T03:27:13.554Z,51.259617
2023-01-13T03:28:13.525Z,51.259544
2023-01-13T03:29:13.520Z,51.259514
2023-01-13T03:30:13.497Z,51.259541
2023-01-13T03:31:13.495Z,51.259647
2023-01-13T03:32:13.504Z,51.259537
2023-01-13T03:33:13.480Z,51.259686
2023-01-13T03:34:13.458Z,51.259674
2023-01-13T03:35:13.461Z,51.259605
2023-01-13T03:36:13.443Z,51.259628
2023-01-13T03:37:13.434Z,51.259571
2023-01-13T03:38:13.451Z,51.259624
2023-01-13T03:39:13.413Z,51.259605
2023-01-13T03:40:13.411Z,51.259628
2023-01-13T03:41:13.396Z,51.259632
2023-01-13T03:42:13.388Z,51.259594
2023-01-13T03:43:13.398Z,51.259590
2023-01-13T03:44:13.363Z,51.259552
2023-01-13T03:45:13.354Z,51.259583
2023-01-13T03:46:13.367Z,51.259586
2023-01-13T03:47:13.336Z,51.259567
2023-01-13T03:48:13.338Z,51.259541
2023-01-13T03:49:13.336Z,51.259529
2023-01-13T03:50:13.318Z,51.259518
2023-01-13T03:51:13.299Z,51.259598
2023-01-13T03:52:13.314Z,51.259590
2023-01-13T03:53:13.297Z,51.259621
2023-01-13T03:54:13.262Z,51.259502
2023-01-13T03:55:13.256Z,51.259575
2023-01-13T03:56:13.256Z,51.259594
2023-01-13T03:57:13.251Z,51.259674
2023-01-13T03:58:13.295Z,51.259674
2023-01-13T03:59:13.215Z,51.259556
2023-01-13T04:00:13.210Z,51.259544
2023-01-13T04:01:13.348Z,51.259453
2023-01-13T04:02:13.319Z,51.259544
2023-01-13T04:03:13.205Z,51.259529
2023-01-13T04:04:13.170Z,51.259521
2023-01-13T04:05:13.157Z,51.259533
2023-01-13T04:06:13.146Z,51.259575
2023-01-13T04:07:13.132Z,51.259571
2023-01-13T04:08:13.179Z,51.259575
2023-01-13T04:09:13.124Z,51.259563
2023-01-13T04:10:13.112Z,51.259537
2023-01-13T04:11:13.135Z,51.259521
2023-01-13T04:12:13.088Z,51.259567
2023-01-13T04:13:13.102Z,51.259499
2023-01-13T04:14:13.058Z,51.259518
2023-01-13T04:15:13.066Z,51.259529
2023-01-13T04:16:13.077Z,51.259518
2023-01-13T04:17:13.044Z,51.259560
2023-01-13T04:18:13.043Z,51.259502
2023-01-13T04:19:13.015Z,51.259541
2023-01-13T04:20:13.007Z,51.259529
2023-01-13T04:21:13.001Z,51.259529
2023-01-13T04:22:12.984Z,51.259487
2023-01-13T04:23:12.994Z,51.259548
2023-01-13T04:24:12.966Z,51.259636
2023-01-13T04:25:12.956Z,51.259583
2023-01-13T04:26:12.936Z,51.259521
2023-01-13T04:27:12.935Z,51.259506
2023-01-13T04:28:12.943Z,51.259556
2023-01-13T04:29:15.463Z,51.259590
2023-01-13T04:30:13.901Z,51.259518
2023-01-13T04:31:12.969Z,51.259491
2023-01-13T04:32:12.885Z,51.259533
2023-01-13T04:33:12.897Z,51.259476
2023-01-13T04:34:12.885Z,51.259686
2023-01-13T04:35:12.862Z,51.259689
2023-01-13T04:36:12.841Z,51.259624
2023-01-13T04:37:12.831Z,51.259617
2023-01-13T04:38:12.858Z,51.259594
2023-01-13T04:39:12.817Z,51.259548
2023-01-13T04:40:12.806Z,51.259548
2023-01-13T04:41:12.794Z,51.259575
2023-01-13T04:42:12.782Z,51.259644
2023-01-13T04:43:12.801Z,51.259605
2023-01-13T04:44:12.773Z,51.259644
2023-01-13T04:45:12.761Z,51.259605
2023-01-13T04:46:12.764Z,51.259533
2023-01-13T04:47:12.756Z,51.259571
2023-01-13T04:48:12.758Z,51.259602
2023-01-13T04:49:12.711Z,51.259651
2023-01-13T04:50:12.729Z,51.259624
2023-01-13T04:51:12.689Z,51.259823
2023-01-13T05:02:54.597Z,51.259613
2023-01-13T05:03:54.567Z,51.259769
2023-01-13T05:04:54.604Z,51.259624
2023-01-13T05:05:54.559Z,51.259556
2023-01-13T05:06:54.535Z,51.259525
2023-01-13T05:07:54.553Z,51.259521
2023-01-13T05:08:54.527Z,51.259567
2023-01-13T05:09:54.514Z,51.259567
2023-01-13T05:10:54.500Z,51.259392
2023-01-13T05:11:54.491Z,51.259598
2023-01-13T05:12:54.495Z,51.259632
2023-01-13T05:13:54.464Z,51.259575
2023-01-13T05:14:54.462Z,51.259594
2023-01-13T05:15:54.458Z,51.259525
2023-01-13T05:16:54.439Z,51.259510
2023-01-13T05:17:54.473Z,51.259563
2023-01-13T05:18:54.445Z,51.259544
2023-01-13T05:19:54.400Z,51.259590
2023-01-13T05:20:54.417Z,51.259789
2023-01-13T05:21:54.391Z,51.259819
2023-01-13T05:22:54.407Z,51.259693
2023-01-13T05:23:54.364Z,51.259712
2023-01-13T05:24:54.357Z,51.259766
2023-01-13T05:25:54.347Z,51.259857
2023-01-13T05:26:54.335Z,51.259926
2023-01-13T05:27:54.321Z,51.259983
2023-01-13T05:28:54.330Z,51.259777
2023-01-13T05:29:54.311Z,51.259697
2023-01-13T05:30:54.318Z,51.259689
2023-01-13T05:31:54.303Z,51.259743
2023-01-13T05:32:54.311Z,51.259785
2023-01-13T05:33:54.307Z,51.259663
2023-01-13T05:34:54.252Z,51.259705
2023-01-13T05:35:54.240Z,51.259701
2023-01-13T05:36:54.229Z,51.259758
2023-01-13T05:37:54.224Z,51.259628
2023-01-13T05:38:54.243Z,51.259602
2023-01-13T05:39:54.194Z,51.259609
2023-01-13T05:40:54.192Z,51.259598
2023-01-13T05:41:54.186Z,51.259628
2023-01-13T05:42:54.171Z,51.259701
2023-01-13T05:43:54.173Z,51.259621
2023-01-13T05:44:54.148Z,51.259651
2023-01-13T05:45:54.147Z,51.259548
2023-01-13T05:46:54.173Z,51.259529
2023-01-13T05:47:54.114Z,51.259583
2023-01-13T05:48:54.130Z,51.259598
2023-01-13T05:49:54.107Z,51.259644
2023-01-13T05:50:54.122Z,51.259628
2023-01-13T05:51:54.071Z,51.259583
2023-01-13T05:52:54.066Z,51.259621
2023-01-13T05:53:54.083Z,51.259506
2023-01-13T05:54:54.043Z,51.259655
2023-01-13T05:55:54.037Z,51.259491
2023-01-13T05:56:54.025Z,51.259521
2023-01-13T05:57:54.025Z,51.259506
2023-01-13T05:58:54.759Z,51.259575
2023-01-13T05:59:53.982Z,51.259617
2023-01-13T06:00:54.014Z,51.259724
2023-01-13T06:01:53.974Z,51.259735
2023-01-13T06:02:54.009Z,51.259701
2023-01-13T06:03:53.963Z,51.259705
2023-01-13T06:04:53.951Z,51.259689
2023-01-13T06:05:53.930Z,51.259598
2023-01-13T06:06:53.918Z,51.259628
2023-01-13T06:07:53.910Z,51.259686
2023-01-13T06:08:53.929Z,51.259651
2023-01-13T06:09:53.895Z,51.259583
2023-01-13T06:10:53.884Z,51.259544
2023-01-13T06:11:53.867Z,51.259560
2023-01-13T06:12:53.878Z,51.259567
2023-01-13T06:13:53.873Z,51.259563
2023-01-13T06:14:53.844Z,51.259624
2023-01-13T06:15:53.863Z,51.259518
2023-01-13T06:16:53.824Z,51.259636
2023-01-13T06:17:53.839Z,51.259647
2023-01-13T06:18:53.829Z,51.259575
2023-01-13T06:19:53.790Z,51.259621
2023-01-13T06:20:53.786Z,51.259705
2023-01-13T06:21:53.770Z,51.259735
2023-01-13T06:22:53.784Z,51.259754
2023-01-13T06:23:53.776Z,51.259712
2023-01-13T06:24:53.747Z,51.259644
2023-01-13T06:25:53.730Z,51.259598
2023-01-13T06:26:53.719Z,51.259594
2023-01-13T06:27:53.708Z,51.259560
2023-01-13T06:28:53.713Z,51.259499
2023-01-13T06:29:53.687Z,51.259544
2023-01-13T06:30:53.678Z,51.259575
2023-01-13T06:31:53.709Z,51.259548
2023-01-13T06:32:53.649Z,51.259609
2023-01-13T06:33:53.656Z,51.259666
2023-01-13T06:34:53.626Z,51.259632
2023-01-13T06:35:53.623Z,51.259575
2023-01-13T06:36:53.617Z,51.259438
2023-01-13T06:37:53.601Z,51.259483
2023-01-13T06:38:53.612Z,51.259457
2023-01-13T06:39:53.576Z,51.259434
2023-01-13T06:40:53.568Z,51.259468
2023-01-13T06:41:53.562Z,51.259499
2023-01-13T06:42:53.541Z,51.259541
2023-01-13T06:43:53.557Z,51.259563
2023-01-13T06:44:53.533Z,51.259609
2023-01-13T06:45:53.525Z,51.259537
2023-01-13T06:46:53.599Z,51.259537
2023-01-13T06:47:53.496Z,51.259567
2023-01-13T06:48:53.503Z,51.259483
2023-01-13T06:49:53.477Z,51.259529
2023-01-13T06:50:53.471Z,51.259556
2023-01-13T06:51:53.452Z,51.259541
2023-01-13T06:52:53.445Z,51.259541
2023-01-13T06:53:53.453Z,51.259537
2023-01-13T06:54:53.416Z,51.259521
2023-01-13T06:55:53.401Z,51.259552
2023-01-13T06:56:53.395Z,51.259499
2023-01-13T06:57:53.378Z,51.259499
2023-01-13T06:58:53.405Z,51.259518
2023-01-13T06:59:53.360Z,51.259510
2023-01-13T07:00:53.441Z,51.259567
2023-01-13T07:01:53.605Z,51.259609
2023-01-13T07:02:53.402Z,51.259567
2023-01-13T07:03:53.330Z,51.259567
2023-01-13T07:04:53.297Z,51.259468
2023-01-13T07:05:53.291Z,51.259514
2023-01-13T07:06:53.272Z,51.259560
2023-01-13T07:07:53.269Z,51.259571
2023-01-13T07:08:53.279Z,51.259476
2023-01-13T07:09:53.249Z,51.259453
2023-01-13T07:10:53.264Z,51.259483
2023-01-13T07:11:53.235Z,51.259480
2023-01-13T07:12:53.210Z,51.259556
2023-01-13T07:13:53.225Z,51.259563
2023-01-13T07:14:53.179Z,51.259602
2023-01-13T07:15:53.172Z,51.259556
2023-01-13T07:16:53.171Z,51.259472
2023-01-13T07:17:53.157Z,51.259491
2023-01-13T07:18:53.168Z,51.259445
2023-01-13T07:19:53.197Z,51.259468
2023-01-13T07:20:53.120Z,51.259411
2023-01-13T07:21:53.131Z,51.259434
2023-01-13T07:22:53.099Z,51.259418
2023-01-13T07:23:53.119Z,51.259380
2023-01-13T07:24:53.077Z,51.259499
2023-01-13T07:25:53.055Z,51.259544
2023-01-13T07:26:53.026Z,51.259556
2023-01-13T07:27:53.036Z,51.259579
2023-01-13T07:28:53.041Z,51.259506
2023-01-13T07:29:53.016Z,51.259510
2023-01-13T07:30:53.012Z,51.259537
2023-01-13T07:31:53.022Z,51.259533
2023-01-13T07:32:52.994Z,51.259575
2023-01-13T07:33:53.007Z,51.259586
2023-01-13T07:34:52.952Z,51.259567
2023-01-13T07:35:52.955Z,51.259502
2023-01-13T07:36:52.938Z,51.259529
2023-01-13T07:37:52.931Z,51.259571
2023-01-13T07:38:54.832Z,51.259529
2023-01-13T07:39:52.903Z,51.259460
2023-01-13T07:40:52.903Z,51.259468
2023-01-13T07:41:52.895Z,51.259445
2023-01-13T07:42:52.857Z,51.259548
2023-01-13T07:43:52.881Z,51.259575
2023-01-13T07:44:52.856Z,51.259552
2023-01-13T07:45:52.909Z,51.259529
2023-01-13T07:46:52.827Z,51.259483
2023-01-13T07:47:52.820Z,51.259472
2023-01-13T07:48:52.824Z,51.259483
2023-01-13T07:49:52.815Z,51.259472
2023-01-13T07:50:52.783Z,51.259449
2023-01-13T07:51:52.800Z,51.259449
2023-01-13T07:52:52.760Z,51.259453
2023-01-13T07:53:52.763Z,51.259514
2023-01-13T07:54:52.743Z,51.259544
2023-01-13T07:55:52.727Z,51.259541
2023-01-13T07:56:52.712Z,51.259533
2023-01-13T07:57:52.699Z,51.259491
2023-01-13T07:58:52.716Z,51.259422
2023-01-13T07:59:52.719Z,51.259468
2023-01-13T08:00:52.805Z,51.259426
2023-01-13T08:01:52.859Z,51.259525
2023-01-13T08:02:52.683Z,51.259541
2023-01-13T08:03:52.632Z,51.259480
2023-01-13T08:04:52.642Z,51.259491
2023-01-13T08:05:52.602Z,51.259476
2023-01-13T08:06:52.614Z,51.259415
2023-01-13T08:07:52.586Z,51.259468
2023-01-13T08:08:52.579Z,51.259476
2023-01-13T08:09:52.586Z,51.259483
2023-01-13T08:10:52.581Z,51.259415
2023-01-13T08:11:52.536Z,51.259411
2023-01-13T08:12:57.001Z,51.259529
2023-01-13T08:13:52.509Z,51.259537
2023-01-13T08:14:52.525Z,51.259426
2023-01-13T08:15:52.511Z,51.259445
2023-01-13T08:16:52.523Z,51.259502
2023-01-13T08:17:52.473Z,51.259483
2023-01-13T08:18:52.470Z,51.259415
2023-01-13T08:19:52.478Z,51.259350
2023-01-13T08:20:52.555Z,51.259472
2023-01-13T08:21:52.443Z,51.259563
2023-01-13T08:22:52.429Z,51.259579
2023-01-13T08:23:52.409Z,51.259571
2023-01-13T08:24:52.418Z,51.259521
2023-01-13T08:25:52.385Z,51.259434
2023-01-13T08:26:52.380Z,51.259487
2023-01-13T08:27:52.367Z,51.259598
2023-01-13T08:28:52.391Z,51.259552
2023-01-13T08:29:52.361Z,51.259541
2023-01-13T08:30:52.388Z,51.259609
2023-01-13T08:31:52.334Z,51.259506
2023-01-13T08:32:52.313Z,51.259575
2023-01-13T08:33:52.302Z,51.259518
2023-01-13T08:34:52.326Z,51.259571
2023-01-13T08:35:52.277Z,51.259506
2023-01-13T08:36:52.278Z,51.259579
2023-01-13T08:37:52.265Z,51.259514
2023-01-13T08:38:52.247Z,51.259350
2023-01-13T08:39:52.238Z,51.259449
2023-01-13T08:40:52.219Z,51.259556
2023-01-13T08:41:52.217Z,51.259567
2023-01-13T08:42:52.193Z,51.259628
2023-01-13T08:43:52.214Z,51.259747
2023-01-13T08:44:52.202Z,51.259617
2023-01-13T08:45:52.187Z,51.259426
2023-01-13T08:46:52.151Z,51.259529
2023-01-13T08:47:52.135Z,51.259449
2023-01-13T08:48:52.165Z,51.259537
2023-01-13T08:49:52.138Z,51.259579
2023-01-13T08:50:52.102Z,51.259567
2023-01-13T08:51:52.113Z,51.259560
2023-01-13T08:52:52.726Z,51.259556
2023-01-13T08:53:52.066Z,51.259544
2023-01-13T08:54:52.091Z,51.259583
2023-01-13T08:55:52.055Z,51.259594
2023-01-13T08:56:52.083Z,51.259506
2023-01-13T08:57:53.078Z,51.259563
2023-01-13T08:58:52.050Z,51.259510
2023-01-13T08:59:52.044Z,51.259499
2023-01-13T09:00:52.205Z,51.259560
2023-01-13T09:01:52.066Z,51.259590
2023-01-13T09:02:51.969Z,51.259640
2023-01-13T09:03:51.960Z,51.259590
2023-01-13T09:04:51.964Z,51.259533
2023-01-13T09:05:51.948Z,51.259563
2023-01-13T09:06:51.939Z,51.259571
2023-01-13T09:07:51.931Z,51.259590
2023-01-13T09:08:52.722Z,51.259670
2023-01-13T09:09:51.903Z,51.259552
2023-01-13T09:10:51.878Z,51.259552
2023-01-13T09:11:51.873Z,51.259594
2023-01-13T09:12:51.877Z,51.259514
2023-01-13T09:13:51.866Z,51.259518
2023-01-13T09:14:51.858Z,51.259579
2023-01-13T09:15:51.911Z,51.259617
2023-01-13T09:16:51.817Z,51.259647
2023-01-13T09:17:51.819Z,51.259621
2023-01-13T09:18:51.804Z,51.259716
2023-01-13T09:19:51.822Z,51.259644
2023-01-13T09:20:51.840Z,51.259563
2023-01-13T09:21:51.761Z,51.259544
2023-01-13T09:22:51.759Z,51.259525
2023-01-13T09:23:51.745Z,51.259544
2023-01-13T09:24:51.776Z,51.259594
2023-01-13T09:25:51.732Z,51.259617
2023-01-13T09:26:51.720Z,51.259602
2023-01-13T09:27:51.714Z,51.259594
2023-01-13T09:28:51.697Z,51.259750
2023-01-13T09:29:51.712Z,51.259636
2023-01-13T09:30:51.692Z,51.259659
2023-01-13T09:31:51.669Z,51.259499
2023-01-13T09:32:51.655Z,51.259537
2023-01-13T09:33:51.639Z,51.259563
2023-01-13T09:34:51.657Z,51.259560
2023-01-13T09:35:52.628Z,51.259548
2023-01-13T09:36:51.642Z,51.259533
2023-01-13T09:37:51.603Z,51.259510
2023-01-13T09:38:51.592Z,51.259521
2023-01-13T09:39:51.608Z,51.259579
2023-01-13T09:40:51.578Z,51.259560
2023-01-13T09:41:51.563Z,51.259533
2023-01-13T09:42:51.552Z,51.259521
2023-01-13T09:43:51.547Z,51.259533
2023-01-13T09:44:51.566Z,51.259579
2023-01-13T09:45:51.527Z,51.259541
2023-01-13T09:46:51.515Z,51.259502
2023-01-13T09:47:51.501Z,51.259495
2023-01-13T09:48:51.494Z,51.259514
2023-01-13T09:49:51.492Z,51.259529
2023-01-13T09:50:51.485Z,51.259602
2023-01-13T09:51:51.465Z,51.259628
2023-01-13T09:52:51.473Z,51.259602
2023-01-13T09:53:51.439Z,51.259567
2023-01-13T09:54:51.456Z,51.259529
2023-01-13T09:55:51.430Z,51.259560
2023-01-13T09:56:51.413Z,51.259594
2023-01-13T09:57:51.388Z,51.259548
2023-01-13T09:58:51.387Z,51.259537
2023-01-13T09:59:51.397Z,51.259438
2023-01-13T10:00:51.369Z,51.259491
2023-01-13T10:01:51.386Z,51.259476
2023-01-13T10:02:51.355Z,51.259514
2023-01-13T10:03:51.411Z,51.259594
2023-01-13T10:04:51.429Z,51.259640
2023-01-13T10:05:51.310Z,51.259670
2023-01-13T10:06:51.315Z,51.259575
2023-01-13T10:07:51.306Z,51.259590
2023-01-13T10:08:51.300Z,51.259575
2023-01-13T10:09:51.292Z,51.259605
2023-01-13T10:10:51.268Z,51.259537
2023-01-13T10:11:51.263Z,51.259510
2023-01-13T10:12:51.242Z,51.259430
2023-01-13T10:13:51.267Z,51.259506
2023-01-13T10:14:51.245Z,51.259579
2023-01-13T10:15:51.230Z,51.259487
2023-01-13T10:16:51.215Z,51.259583
2023-01-13T10:17:51.187Z,51.259422
2023-01-13T10:18:51.189Z,51.259609
2023-01-13T10:19:51.197Z,51.259449
2023-01-13T10:20:51.168Z,51.259472
2023-01-13T10:21:51.149Z,51.259491
2023-01-13T10:22:51.147Z,51.259495
2023-01-13T10:23:51.132Z,51.259579
2023-01-13T10:24:51.145Z,51.259533
2023-01-13T10:25:51.145Z,51.259678
2023-01-13T10:26:51.109Z,51.259583
2023-01-13T10:27:51.091Z,51.259689
2023-01-13T10:28:52.077Z,51.259937
2023-01-13T10:29:51.098Z,51.259911
2023-01-13T10:30:51.070Z,51.259830
2023-01-13T10:31:51.059Z,51.259705
2023-01-13T10:32:51.060Z,51.259590
2023-01-13T10:33:51.035Z,51.259499
2023-01-13T10:34:51.074Z,51.259510
2023-01-13T10:35:51.018Z,51.259529
2023-01-13T10:36:51.011Z,51.259495
2023-01-13T10:37:50.994Z,51.259537
2023-01-13T10:38:50.988Z,51.259460
2023-01-13T10:39:51.001Z,51.259502
2023-01-13T10:40:50.970Z,51.259453
2023-01-13T10:41:50.949Z,51.259422
2023-01-13T10:42:50.942Z,51.259369
2023-01-13T10:43:50.938Z,51.259449
2023-01-13T10:44:50.967Z,51.259453
2023-01-13T10:45:50.904Z,51.259521
2023-01-13T10:46:52.023Z,51.259487
2023-01-13T10:47:50.889Z,51.259583
2023-01-13T10:48:50.877Z,51.259583
2023-01-13T10:49:50.897Z,51.259495
2023-01-13T10:50:50.875Z,51.259518
2023-01-13T10:51:50.974Z,51.259541
2023-01-13T10:53:23.239Z,51.259579
2023-01-13T10:53:50.879Z,51.259548
2023-01-13T10:54:50.840Z,51.259575
2023-01-13T10:55:52.959Z,51.259552
2023-01-13T10:56:50.807Z,51.259521
2023-01-13T10:57:50.795Z,51.259441
2023-01-13T10:58:50.783Z,51.259533
2023-01-13T10:59:50.778Z,51.259624
2023-01-13T11:00:50.793Z,51.259636
2023-01-13T11:01:53.739Z,51.259590
2023-01-13T11:02:50.764Z,51.259563
2023-01-13T11:03:50.731Z,51.259583
2023-01-13T11:04:50.773Z,51.259590
2023-01-13T11:05:50.726Z,51.259514
2023-01-13T11:06:50.703Z,51.259472
2023-01-13T11:07:50.694Z,51.259453
2023-01-13T11:08:50.708Z,51.259480
2023-01-13T11:09:50.670Z,51.259209
2023-01-13T11:10:50.693Z,51.259285
2023-01-13T11:11:50.641Z,51.259315
2023-01-13T11:12:53.259Z,51.259457
2023-01-13T11:13:50.638Z,51.259571
2023-01-13T11:14:50.632Z,51.259670
2023-01-13T11:15:50.638Z,51.259590
2023-01-13T11:16:53.717Z,51.259670
2023-01-13T11:17:51.595Z,51.259533
2023-01-13T11:18:50.582Z,51.259510
2023-01-13T11:19:50.560Z,51.259434
2023-01-13T11:20:50.607Z,51.259369
2023-01-13T11:21:50.561Z,51.259518
2023-01-13T11:22:50.546Z,51.259548
2023-01-13T11:23:50.530Z,51.259567
2023-01-13T11:24:51.008Z,51.259609
2023-01-13T11:25:51.544Z,51.259495
2023-01-13T11:26:50.502Z,51.259533
2023-01-13T11:27:50.487Z,51.259548
2023-01-13T11:28:50.477Z,51.259583
2023-01-13T11:29:50.474Z,51.259506
2023-01-13T11:30:50.907Z,51.259480
2023-01-13T11:31:51.458Z,51.259487
2023-01-13T11:32:50.455Z,51.259521
2023-01-13T11:33:50.436Z,51.259396
2023-01-13T11:34:50.429Z,51.259346